Airfield :
LOGIN :

Register | Disclaimer

   EN    FR    IT 

 










Legend :    VFR   Marginal VFR   IFR   Intensive IFR   Very Intensive IFR
Visi :
Ceiling :
>= 8 km
>= 3000ft
5 to 8 km
1000 to 3000 ft
1500m to 5 km
500 to 1000 ft
800 to 1500m
200 to 500 ft
< 800m
< 200 ft
Symbols :   Thunderstorms  Fog  Heavy snow  Heavy precipitations  Wind > 20 kt
SIGMETs :     Misc.  Thunderstorms  Icing  Turbulence  Mountain Waves  Volcanic Ashes






- Airport Elevation : 0 ft


ETWM - Meppe

CURRENT METAR :
  • 080920Z 24005KT 9999 SCT003 BKN110 03/02 Q1006 BLU

EXPIRED METARs :
  • 080820Z 25005KT 9999 FEW004 SCT029 BKN100 02/02 Q1006 BLU
  • 080749Z 25004KT 9999 -RA FEW004 BKN040 BKN100 02/02 Q1006 BLU
  • 080720Z 26003KT 9000 -RADZ FEW004 BKN008 BKN017 03/02 Q1006 GRN

TAF N/A



MET'MAP, your aeronautical weather chart ! - Copyright ORBIFLY December 2007 - Disclaimer

ORBIFLY MET'MAP TEAM :

Programming & Development : Alexandra Zaïnal
Original concept : Baudouin d'Aumeries
Technical & hardware support : Manuel Goepfert
Assistance : Marc-Olivier Méhu




SOURCES & CREDITS :

   NOAA